Seiwamaru — JG5074 — position and weather

sailwx.info

Track history (hours):
 
Tides and Currents Weather Stations Pressure Air Temp Water Temp Dewpoint Dewpoint Depression Visibility Wind Speed Wind Dir Waves Ship Positions

Seiwamaru

Last reported at 2017-Oct-17 06:32 UTC. Time now 2017-Oct-20 11:02 UTC.
Position N 34°36' E 135°03'.

Length 59 m; draft 3.8 m.

Type: Tanker. MMSI: 431100283.

Date/timePositionNaut miles runAvg speedWind from/ knotsBaromVisibWave heightAir tempDewpointWater temp
2017-Oct-17 06:32N 34°36' E 135°03'011.5
2017-Oct-17 06:30N 34°36' E 135°03'611.1
2017-Oct-17 06:01N 34°36' E 135°10'612.1
2017-Oct-17 05:31N 34°36' E 135°17'611.7
2017-Oct-17 05:00N 34°36' E 135°25'1 2.8
2017-Oct-17 04:31N 34°35' E 135°26'0 0.0
2017-Oct-17 04:00N 34°35' E 135°26'0 0.0
2017-Oct-17 03:31N 34°35' E 135°26'0 0.0
2017-Oct-17 03:00N 34°35' E 135°26'1 3.0
2017-Oct-17 02:30N 34°36' E 135°24'2 4.1
2017-Oct-17 02:01N 34°34' E 135°25'0 0.0
2017-Oct-16 23:22N 34°34' E 135°25'1 3.1
2017-Oct-16 23:00N 34°33' E 135°24'0 0.0
2017-Oct-16 22:29N 34°33' E 135°24'0 0.0
2017-Oct-16 22:00N 34°33' E 135°24'0 0.0
2017-Oct-16 21:30N 34°33' E 135°24'0 0.0
2017-Oct-16 21:01N 34°33' E 135°24'0 0.0
2017-Oct-16 20:31N 34°33' E 135°24'5 9.1
2017-Oct-16 20:00N 34°33' E 135°18'611.1
2017-Oct-16 19:31N 34°34' E 135°12'612.7
2017-Oct-16 19:00N 34°35' E 135°04'  
2017-Oct-13 07:47N 34°50' E 139°10'1511.4
2017-Oct-13 06:28N 34°59' E 139°24'510.6
2017-Oct-13 05:59N 35°02' E 139°30'611.5
2017-Oct-13 05:30N 35°04' E 139°36'612.1
2017-Oct-13 05:00N 35°07' E 139°42'612.2
2017-Oct-13 04:30N 35°12' E 139°46'611.7
2017-Oct-13 04:00N 35°18' E 139°44'611.8
2017-Oct-13 03:30N 35°24' E 139°42'510.7
2017-Oct-13 03:00N 35°29' E 139°41'0 0.9
2017-Oct-13 02:30N 35°29' E 139°41'0 0.0
2017-Oct-13 02:00N 35°29' E 139°41'0 0.0
2017-Oct-13 01:30N 35°29' E 139°41'0 0.0
2017-Oct-13 01:00N 35°29' E 139°41'0 0.0
2017-Oct-13 00:30N 35°29' E 139°41'0 0.0
2017-Oct-13 00:00N 35°29' E 139°41'0 0.0
2017-Oct-12 23:30N 35°29' E 139°41'1 1.1
2017-Oct-12 23:00N 35°29' E 139°41'3 5.8
2017-Oct-12 22:30N 35°27' E 139°43'3 5.2
2017-Oct-12 22:00N 35°25' E 139°45'0 0.0
2017-Oct-12 21:30N 35°25' E 139°45'0 0.0
2017-Oct-12 21:00N 35°25' E 139°45'0 0.0
2017-Oct-12 20:30N 35°25' E 139°45'0 0.0
2017-Oct-12 20:00N 35°25' E 139°45'0 0.0
2017-Oct-12 19:30N 35°25' E 139°45'0 0.1
2017-Oct-12 19:00N 35°25' E 139°45'0 0.0
2017-Oct-12 18:30N 35°25' E 139°45'1 1.0
2017-Oct-12 18:00N 35°24' E 139°45'510.5
2017-Oct-12 17:30N 35°19' E 139°44'510.7
2017-Oct-12 17:00N 35°15' E 139°47'510.9
2017-Oct-12 16:30N 35°09' E 139°46'611.6
2017-Oct-12 16:00N 35°05' E 139°42'612.3
2017-Oct-12 15:30N 35°01' E 139°36'  
Track history (hours):
 
Tides and Currents Weather Stations Pressure Air Temp Water Temp Dewpoint Dewpoint Depression Visibility Wind Speed Wind Dir Waves Ship Positions

Seiwamaru

Last reported at 2017-Oct-17 06:32 UTC. Time now 2017-Oct-20 11:02 UTC.
Position N 34°36' E 135°03'.

Length 59 m; draft 3.8 m.

Type: Tanker. MMSI: 431100283.

Date/timePositionNaut miles runAvg speedWind from/ knotsBaromVisibWave heightAir tempDewpointWater temp
2017-Oct-17 06:32N 34°36' E 135°03'011.5
2017-Oct-17 06:30N 34°36' E 135°03'611.1
2017-Oct-17 06:01N 34°36' E 135°10'612.1
2017-Oct-17 05:31N 34°36' E 135°17'611.7
2017-Oct-17 05:00N 34°36' E 135°25'1 2.8
2017-Oct-17 04:31N 34°35' E 135°26'0 0.0
2017-Oct-17 04:00N 34°35' E 135°26'0 0.0
2017-Oct-17 03:31N 34°35' E 135°26'0 0.0
2017-Oct-17 03:00N 34°35' E 135°26'1 3.0
2017-Oct-17 02:30N 34°36' E 135°24'2 4.1
2017-Oct-17 02:01N 34°34' E 135°25'0 0.0
2017-Oct-16 23:22N 34°34' E 135°25'1 3.1
2017-Oct-16 23:00N 34°33' E 135°24'0 0.0
2017-Oct-16 22:29N 34°33' E 135°24'0 0.0
2017-Oct-16 22:00N 34°33' E 135°24'0 0.0
2017-Oct-16 21:30N 34°33' E 135°24'0 0.0
2017-Oct-16 21:01N 34°33' E 135°24'0 0.0
2017-Oct-16 20:31N 34°33' E 135°24'5 9.1
2017-Oct-16 20:00N 34°33' E 135°18'611.1
2017-Oct-16 19:31N 34°34' E 135°12'612.7
2017-Oct-16 19:00N 34°35' E 135°04'  
2017-Oct-13 07:47N 34°50' E 139°10'1511.4
2017-Oct-13 06:28N 34°59' E 139°24'510.6
2017-Oct-13 05:59N 35°02' E 139°30'611.5
2017-Oct-13 05:30N 35°04' E 139°36'612.1
2017-Oct-13 05:00N 35°07' E 139°42'612.2
2017-Oct-13 04:30N 35°12' E 139°46'611.7
2017-Oct-13 04:00N 35°18' E 139°44'611.8
2017-Oct-13 03:30N 35°24' E 139°42'510.7
2017-Oct-13 03:00N 35°29' E 139°41'0 0.9
2017-Oct-13 02:30N 35°29' E 139°41'0 0.0
2017-Oct-13 02:00N 35°29' E 139°41'0 0.0
2017-Oct-13 01:30N 35°29' E 139°41'0 0.0
2017-Oct-13 01:00N 35°29' E 139°41'0 0.0
2017-Oct-13 00:30N 35°29' E 139°41'0 0.0
2017-Oct-13 00:00N 35°29' E 139°41'0 0.0
2017-Oct-12 23:30N 35°29' E 139°41'1 1.1
2017-Oct-12 23:00N 35°29' E 139°41'3 5.8
2017-Oct-12 22:30N 35°27' E 139°43'3 5.2
2017-Oct-12 22:00N 35°25' E 139°45'0 0.0
2017-Oct-12 21:30N 35°25' E 139°45'0 0.0
2017-Oct-12 21:00N 35°25' E 139°45'0 0.0
2017-Oct-12 20:30N 35°25' E 139°45'0 0.0
2017-Oct-12 20:00N 35°25' E 139°45'0 0.0
2017-Oct-12 19:30N 35°25' E 139°45'0 0.1
2017-Oct-12 19:00N 35°25' E 139°45'0 0.0
2017-Oct-12 18:30N 35°25' E 139°45'1 1.0
2017-Oct-12 18:00N 35°24' E 139°45'510.5
2017-Oct-12 17:30N 35°19' E 139°44'510.7
2017-Oct-12 17:00N 35°15' E 139°47'510.9
2017-Oct-12 16:30N 35°09' E 139°46'611.6
2017-Oct-12 16:00N 35°05' E 139°42'612.3
2017-Oct-12 15:30N 35°01' E 139°36'  

Dump ship's entire track history